createdAt,value
2023-01-23T00:01:30.165Z,2.65
2023-01-23T00:03:57.560Z,2.64
2023-01-23T00:06:24.336Z,2.65
2023-01-23T00:08:50.921Z,2.66
2023-01-23T00:11:20.375Z,2.69
2023-01-23T00:13:47.117Z,2.69
2023-01-23T00:16:17.553Z,2.70
2023-01-23T00:18:44.584Z,2.72
2023-01-23T00:21:14.212Z,2.76
2023-01-23T00:23:52.524Z,2.77
2023-01-23T00:26:22.895Z,2.78
2023-01-23T00:28:50.476Z,2.80
2023-01-23T00:31:24.919Z,2.81
2023-01-23T00:33:59.852Z,2.84
2023-01-23T00:36:32.215Z,2.85
2023-01-23T00:38:58.737Z,2.86
2023-01-23T00:41:25.718Z,2.87
2023-01-23T00:43:52.679Z,2.88
2023-01-23T00:46:20.896Z,2.89
2023-01-23T00:48:47.683Z,2.88
2023-01-23T00:51:14.323Z,2.88
2023-01-23T00:53:40.832Z,2.88
2023-01-23T00:56:08.096Z,2.87
2023-01-23T00:58:34.624Z,2.88
2023-01-23T01:01:00.981Z,2.87
2023-01-23T01:03:27.437Z,2.86
2023-01-23T01:05:53.957Z,2.86
2023-01-23T01:08:20.744Z,2.84
2023-01-23T01:10:47.106Z,2.85
2023-01-23T01:13:14.493Z,2.83
2023-01-23T01:15:41.100Z,2.84
2023-01-23T01:18:07.457Z,2.83
2023-01-23T01:20:33.879Z,2.84
2023-01-23T01:23:00.563Z,2.85
2023-01-23T01:25:27.788Z,2.83
2023-01-23T01:27:55.915Z,2.85
2023-01-23T01:30:22.627Z,2.86
2023-01-23T01:32:49.132Z,2.83
2023-01-23T01:35:15.540Z,2.85
2023-01-23T01:37:42.214Z,2.86
2023-01-23T01:40:14.360Z,2.87
2023-01-23T01:42:44.281Z,2.86
2023-01-23T01:45:48.043Z,2.84
2023-01-23T01:48:15.374Z,2.84
2023-01-23T01:50:42.624Z,2.84
2023-01-23T01:53:11.190Z,2.83
2023-01-23T01:55:39.248Z,2.83
2023-01-23T01:58:05.979Z,2.84
2023-01-23T02:00:32.474Z,2.82
2023-01-23T02:03:03.577Z,2.81
2023-01-23T02:05:42.641Z,2.80
2023-01-23T02:08:21.548Z,2.80
2023-01-23T02:10:48.181Z,2.78
2023-01-23T02:15:50.141Z,2.73
2023-01-23T02:18:16.728Z,2.74
2023-01-23T02:20:43.287Z,2.72
2023-01-23T02:23:24.745Z,2.72
2023-01-23T02:26:01.544Z,2.72
2023-01-23T02:28:40.120Z,2.72
2023-01-23T02:31:07.722Z,2.73
2023-01-23T02:33:34.165Z,2.75
2023-01-23T02:36:02.437Z,2.76
2023-01-23T02:38:39.199Z,2.77
2023-01-23T02:41:09.343Z,2.77
2023-01-23T02:43:38.252Z,2.78
2023-01-23T02:46:06.284Z,2.80
2023-01-23T02:48:32.835Z,2.82
2023-01-23T02:50:59.323Z,2.82
2023-01-23T02:53:26.840Z,2.83
2023-01-23T02:55:53.859Z,2.83
2023-01-23T02:58:39.144Z,2.83
2023-01-23T03:01:05.625Z,2.83
2023-01-23T03:03:32.044Z,2.81
2023-01-23T03:05:59.193Z,2.82
2023-01-23T03:08:34.226Z,2.80
2023-01-23T03:11:01.708Z,2.81
2023-01-23T03:13:28.417Z,2.79
2023-01-23T03:15:56.302Z,2.80
2023-01-23T03:18:23.653Z,2.78
2023-01-23T03:20:50.094Z,2.79
2023-01-23T03:23:16.950Z,2.79
2023-01-23T03:25:44.591Z,2.78
2023-01-23T03:28:33.528Z,2.77
2023-01-23T03:30:59.919Z,2.74
2023-01-23T03:33:26.832Z,2.73
2023-01-23T03:35:53.250Z,2.70
2023-01-23T03:38:19.779Z,2.70
2023-01-23T03:41:08.058Z,2.68
2023-01-23T03:43:34.458Z,2.65
2023-01-23T03:46:00.892Z,2.64
2023-01-23T03:48:27.320Z,2.65
2023-01-23T03:50:53.757Z,2.64
2023-01-23T03:53:20.230Z,2.65
2023-01-23T03:55:47.462Z,2.64
2023-01-23T03:58:13.984Z,2.65
2023-01-23T04:00:40.352Z,2.65
2023-01-23T04:03:06.858Z,2.65
2023-01-23T04:05:34.066Z,2.67
2023-01-23T04:08:00.757Z,2.67
2023-01-23T04:10:27.667Z,2.67
2023-01-23T04:12:54.093Z,2.67
2023-01-23T04:15:20.775Z,2.66
2023-01-23T04:17:47.193Z,2.65
2023-01-23T04:20:14.268Z,2.64
2023-01-23T04:22:40.676Z,2.62
2023-01-23T04:25:07.683Z,2.60
2023-01-23T04:27:34.116Z,2.58
2023-01-23T04:30:00.512Z,2.57
2023-01-23T04:32:27.004Z,2.56
2023-01-23T04:34:53.381Z,2.55
2023-01-23T04:37:19.803Z,2.54
2023-01-23T04:39:46.341Z,2.54
2023-01-23T04:42:12.740Z,2.55
2023-01-23T04:44:39.110Z,2.55
2023-01-23T04:47:05.534Z,2.54
2023-01-23T04:49:31.900Z,2.55
2023-01-23T04:51:58.303Z,2.55
2023-01-23T04:54:24.713Z,2.55
2023-01-23T04:56:51.380Z,2.56
2023-01-23T04:59:17.792Z,2.56
2023-01-23T05:01:45.318Z,2.57
2023-01-23T05:04:12.034Z,2.56
2023-01-23T05:06:38.496Z,2.57
2023-01-23T05:09:05.514Z,2.58
2023-01-23T05:11:31.930Z,2.59
2023-01-23T05:13:58.425Z,2.60
2023-01-23T05:16:24.886Z,2.60
2023-01-23T05:18:51.256Z,2.61
2023-01-23T05:21:17.674Z,2.61
2023-01-23T05:23:44.049Z,2.62
2023-01-23T05:26:10.549Z,2.62
2023-01-23T05:28:36.953Z,2.63
2023-01-23T05:31:03.668Z,2.64
2023-01-23T05:33:30.183Z,2.65
2023-01-23T05:36:01.011Z,2.66
2023-01-23T05:38:27.637Z,2.67
2023-01-23T05:40:54.015Z,2.68
2023-01-23T05:43:20.556Z,2.68
2023-01-23T05:45:47.029Z,2.68
2023-01-23T05:48:13.511Z,2.68
2023-01-23T05:50:40.305Z,2.69
2023-01-23T05:53:06.779Z,2.68
2023-01-23T05:55:33.178Z,2.68
2023-01-23T05:57:59.585Z,2.69
2023-01-23T06:00:26.109Z,2.68
2023-01-23T06:02:52.644Z,2.67
2023-01-23T06:05:19.122Z,2.69
2023-01-23T06:07:45.517Z,2.69
2023-01-23T06:10:12.039Z,2.70
2023-01-23T06:12:38.498Z,2.71
2023-01-23T06:15:05.553Z,2.72
2023-01-23T06:17:32.068Z,2.72
2023-01-23T06:19:58.787Z,2.72
2023-01-23T06:22:25.239Z,2.72
2023-01-23T06:24:52.605Z,2.73
2023-01-23T06:27:19.220Z,2.75
2023-01-23T06:29:45.728Z,2.75
2023-01-23T06:32:12.522Z,2.75
2023-01-23T06:34:39.075Z,2.75
2023-01-23T06:37:05.451Z,2.74
2023-01-23T06:39:31.906Z,2.72
2023-01-23T06:41:58.257Z,2.73
2023-01-23T06:44:24.664Z,2.72
2023-01-23T06:46:53.002Z,2.72
2023-01-23T06:49:19.363Z,2.71
2023-01-23T06:51:47.233Z,2.70
2023-01-23T06:54:13.665Z,2.70
2023-01-23T06:56:40.099Z,2.72
2023-01-23T06:59:06.845Z,2.75
2023-01-23T07:01:33.235Z,2.79
2023-01-23T07:03:59.658Z,2.81
2023-01-23T07:06:26.115Z,2.83
2023-01-23T07:08:52.672Z,2.86
2023-01-23T07:11:19.539Z,2.87
2023-01-23T07:13:46.025Z,2.89
2023-01-23T07:16:12.586Z,2.92
2023-01-23T07:18:39.069Z,2.94
2023-01-23T07:21:06.928Z,2.97
2023-01-23T07:23:34.267Z,2.97
2023-01-23T07:26:09.462Z,2.99
2023-01-23T07:28:39.350Z,2.99
2023-01-23T07:31:06.229Z,2.99
2023-01-23T07:33:32.795Z,2.99
2023-01-23T07:35:59.236Z,2.99
2023-01-23T07:38:25.881Z,2.99
2023-01-23T07:40:52.634Z,2.99
2023-01-23T07:43:19.183Z,3.00
2023-01-23T07:45:45.621Z,3.01
2023-01-23T07:48:12.163Z,3.02
2023-01-23T07:50:38.557Z,3.03
2023-01-23T07:53:05.972Z,3.05
2023-01-23T07:55:32.749Z,3.05
2023-01-23T07:57:59.216Z,3.05
2023-01-23T08:00:29.228Z,3.07
2023-01-23T08:02:56.687Z,3.06
2023-01-23T08:05:23.195Z,3.07
2023-01-23T08:07:50.988Z,3.08
2023-01-23T08:10:19.207Z,3.08
2023-01-23T08:12:45.784Z,3.09
2023-01-23T08:15:12.545Z,3.11
2023-01-23T08:17:38.968Z,3.12
2023-01-23T08:20:05.903Z,3.12
2023-01-23T08:22:33.359Z,3.14
2023-01-23T08:24:59.804Z,3.16
2023-01-23T08:27:26.236Z,3.20
2023-01-23T08:29:52.644Z,3.22
2023-01-23T08:32:19.091Z,3.24
2023-01-23T08:34:46.042Z,3.26
2023-01-23T08:37:12.582Z,3.30
2023-01-23T08:39:38.990Z,3.32
2023-01-23T08:42:05.497Z,3.35
2023-01-23T08:44:34.159Z,3.37
2023-01-23T08:47:03.031Z,3.40
2023-01-23T08:49:29.457Z,3.42
2023-01-23T08:51:57.515Z,3.44
2023-01-23T08:54:23.940Z,3.48
2023-01-23T08:56:50.324Z,3.49
2023-01-23T08:59:16.794Z,3.50
2023-01-23T09:01:43.264Z,3.53
2023-01-23T09:04:09.676Z,3.56
2023-01-23T09:06:36.240Z,3.60
2023-01-23T09:09:02.646Z,3.64
2023-01-23T09:11:29.018Z,3.69
2023-01-23T09:13:55.411Z,3.73
2023-01-23T09:16:22.023Z,3.74
2023-01-23T09:18:48.486Z,3.78
2023-01-23T09:21:16.973Z,3.84
2023-01-23T09:23:44.045Z,3.88
2023-01-23T09:26:12.315Z,3.93
2023-01-23T09:28:42.049Z,3.97
2023-01-23T09:31:11.612Z,3.99
2023-01-23T09:33:38.521Z,4.00
2023-01-23T09:36:05.356Z,4.02
2023-01-23T09:38:33.921Z,4.03
2023-01-23T09:41:09.123Z,4.04
2023-01-23T09:43:39.344Z,4.04
2023-01-23T09:46:15.484Z,4.05
2023-01-23T09:48:44.951Z,4.05
2023-01-23T09:51:28.140Z,4.04
2023-01-23T09:54:01.166Z,4.06
2023-01-23T09:56:35.999Z,4.08
2023-01-23T09:59:33.187Z,4.14
2023-01-23T10:01:59.755Z,4.19
2023-01-23T10:04:26.289Z,4.26
2023-01-23T10:07:34.797Z,4.31
2023-01-23T10:10:31.491Z,4.35
2023-01-23T10:13:09.203Z,4.40
2023-01-23T10:15:44.417Z,4.45
2023-01-23T10:18:25.689Z,4.48
2023-01-23T10:21:04.467Z,4.52
2023-01-23T10:23:46.739Z,4.53
2023-01-23T10:26:21.967Z,4.58
2023-01-23T10:28:51.499Z,4.59
2023-01-23T10:31:43.389Z,4.63
2023-01-23T10:34:09.780Z,4.68
2023-01-23T10:36:53.945Z,4.73
2023-01-23T10:39:31.943Z,4.77
2023-01-23T10:42:02.276Z,4.79
2023-01-23T10:44:29.158Z,4.83
2023-01-23T10:47:00.460Z,4.89
2023-01-23T10:49:45.942Z,4.87
2023-01-23T10:52:33.275Z,4.92
2023-01-23T10:55:00.750Z,4.97
2023-01-23T10:57:29.657Z,5.01
2023-01-23T11:00:08.312Z,5.05
2023-01-23T11:02:37.120Z,5.06
2023-01-23T11:05:52.913Z,5.07
2023-01-23T11:08:32.125Z,5.10
2023-01-23T11:11:19.854Z,5.11
2023-01-23T11:13:49.598Z,5.16
2023-01-23T11:16:18.547Z,5.17
2023-01-23T11:18:55.061Z,5.21
2023-01-23T11:21:28.535Z,5.25
2023-01-23T11:24:09.657Z,5.26
2023-01-23T11:26:38.344Z,5.29
2023-01-23T11:29:23.017Z,5.33
2023-01-23T11:32:09.211Z,5.36
2023-01-23T11:34:45.673Z,5.40
2023-01-23T11:37:28.203Z,5.44
2023-01-23T11:39:59.810Z,5.48
2023-01-23T11:42:28.699Z,5.50
2023-01-23T11:44:58.663Z,5.53
2023-01-23T11:47:42.324Z,5.55
2023-01-23T11:50:15.739Z,5.55
2023-01-23T11:52:51.268Z,5.51
2023-01-23T11:55:34.694Z,5.51
2023-01-23T11:58:26.648Z,5.49
2023-01-23T12:00:55.737Z,5.42
2023-01-23T12:04:01.708Z,5.45
2023-01-23T12:06:46.446Z,5.54
2023-01-23T12:09:17.830Z,5.62
2023-01-23T12:11:58.202Z,5.74
2023-01-23T12:14:30.804Z,5.83
2023-01-23T12:17:12.157Z,5.91
2023-01-23T12:19:46.313Z,5.97
2023-01-23T12:22:37.332Z,5.99
2023-01-23T12:25:18.037Z,5.99
2023-01-23T12:27:47.288Z,5.92
2023-01-23T12:30:35.352Z,5.87
2023-01-23T12:33:20.615Z,5.83
2023-01-23T12:35:50.931Z,5.79
2023-01-23T12:38:50.342Z,5.79
2023-01-23T12:41:36.638Z,5.75
2023-01-23T12:44:18.405Z,5.76
2023-01-23T12:47:04.318Z,5.74
2023-01-23T12:49:38.649Z,5.68
2023-01-23T12:52:28.737Z,5.65
2023-01-23T12:55:07.549Z,5.66
2023-01-23T12:57:58.966Z,5.70
2023-01-23T13:00:52.835Z,5.74
2023-01-23T13:03:45.892Z,5.75
2023-01-23T13:06:18.882Z,5.75
2023-01-23T13:09:17.705Z,5.78
2023-01-23T13:11:54.084Z,5.81
2023-01-23T13:14:36.757Z,5.81
2023-01-23T13:17:26.034Z,5.82
2023-01-23T13:20:11.239Z,5.85
2023-01-23T13:22:38.524Z,5.86
2023-01-23T13:25:13.341Z,5.90
2023-01-23T13:27:55.563Z,5.95
2023-01-23T13:30:22.328Z,5.96
2023-01-23T13:32:51.542Z,6.02
2023-01-23T13:35:40.123Z,6.05
2023-01-23T13:38:21.585Z,6.06
2023-01-23T13:41:11.503Z,6.07
2023-01-23T13:43:49.939Z,6.07
2023-01-23T13:46:32.825Z,6.05
2023-01-23T14:24:45.469Z,5.79
2023-01-23T14:27:30.697Z,5.77
2023-01-23T14:30:02.442Z,5.76
2023-01-23T14:32:31.146Z,5.74
2023-01-23T14:34:57.637Z,5.72
2023-01-23T14:37:25.286Z,5.69
2023-01-23T14:39:53.694Z,5.67
2023-01-23T14:42:26.712Z,5.62
2023-01-23T14:44:54.595Z,5.58
2023-01-23T14:47:34.358Z,5.57
2023-01-23T14:50:02.827Z,5.54
2023-01-23T14:52:30.875Z,5.52
2023-01-23T14:55:03.166Z,5.48
2023-01-23T14:57:34.031Z,5.46
2023-01-23T15:00:00.442Z,5.42
2023-01-23T15:02:27.007Z,5.38
2023-01-23T15:05:11.880Z,5.35
2023-01-23T15:07:56.045Z,5.31
2023-01-23T15:10:40.620Z,5.27
2023-01-23T15:13:12.036Z,5.23
2023-01-23T15:15:44.764Z,5.19
2023-01-23T15:18:23.040Z,5.17
2023-01-23T15:21:02.811Z,5.15
2023-01-23T15:23:37.116Z,5.13
2023-01-23T15:26:18.486Z,5.10
2023-01-23T15:28:56.068Z,5.09
2023-01-23T15:31:36.203Z,5.07
2023-01-23T15:34:14.924Z,5.03
2023-01-23T15:36:50.205Z,5.00
2023-01-23T15:39:23.696Z,5.00
2023-01-23T15:41:57.605Z,4.98
2023-01-23T15:44:28.070Z,4.95
2023-01-23T15:46:56.307Z,4.93
2023-01-23T15:49:26.100Z,4.91
2023-01-23T15:51:55.665Z,4.90
2023-01-23T15:54:26.657Z,4.87
2023-01-23T15:57:05.511Z,4.87
2023-01-23T15:59:34.297Z,4.83
2023-01-23T16:02:00.687Z,4.82
2023-01-23T16:04:27.076Z,4.78
2023-01-23T16:06:53.898Z,4.79
2023-01-23T16:09:30.752Z,4.81
2023-01-23T16:11:59.794Z,4.79
2023-01-23T16:14:26.274Z,4.78
2023-01-23T16:16:53.063Z,4.77
2023-01-23T16:19:19.600Z,4.76
2023-01-23T16:21:55.824Z,4.77
2023-01-23T16:24:27.054Z,4.77
2023-01-23T16:26:56.516Z,4.76
2023-01-23T16:29:34.436Z,4.76
2023-01-23T16:32:02.000Z,4.74
2023-01-23T16:34:28.897Z,4.75
2023-01-23T16:36:58.063Z,4.73
2023-01-23T16:39:27.466Z,4.69
2023-01-23T16:41:54.860Z,4.62
2023-01-23T16:44:23.868Z,4.59
2023-01-23T16:46:52.283Z,4.59
2023-01-23T16:49:19.808Z,4.58
2023-01-23T16:51:51.508Z,4.59
2023-01-23T16:54:20.359Z,4.58
2023-01-23T16:56:50.910Z,4.59
2023-01-23T16:59:20.851Z,4.60
2023-01-23T17:01:49.761Z,4.61
2023-01-23T17:04:20.324Z,4.61
2023-01-23T17:06:47.739Z,4.61
2023-01-23T17:09:15.805Z,4.63
2023-01-23T17:11:45.487Z,4.63
2023-01-23T17:14:17.642Z,4.62
2023-01-23T17:16:44.783Z,4.62
2023-01-23T17:19:23.549Z,4.63
2023-01-23T17:21:50.325Z,4.62
2023-01-23T17:24:17.706Z,4.63
2023-01-23T17:26:44.687Z,4.61
2023-01-23T17:29:11.227Z,4.59
2023-01-23T17:31:38.872Z,4.60
2023-01-23T17:34:07.620Z,4.60
2023-01-23T17:36:34.909Z,4.61
2023-01-23T17:39:01.649Z,4.62
2023-01-23T17:41:28.251Z,4.61
2023-01-23T17:43:54.665Z,4.60
2023-01-23T17:46:26.986Z,4.61
2023-01-23T17:48:55.656Z,4.59
2023-01-23T17:51:24.017Z,4.59
2023-01-23T17:53:51.114Z,4.57
2023-01-23T17:56:17.540Z,4.56
2023-01-23T17:58:44.486Z,4.55
2023-01-23T18:01:17.597Z,4.55
2023-01-23T18:03:44.655Z,4.52
2023-01-23T18:06:11.275Z,4.52
2023-01-23T18:08:42.021Z,4.52
2023-01-23T18:11:17.800Z,4.53
2023-01-23T18:13:55.817Z,4.54
2023-01-23T18:16:29.249Z,4.53
2023-01-23T18:19:01.560Z,4.53
2023-01-23T18:21:28.611Z,4.53
2023-01-23T18:23:55.467Z,4.53
2023-01-23T18:26:35.003Z,4.53
2023-01-23T18:29:20.486Z,4.50
2023-01-23T18:32:00.246Z,4.51
2023-01-23T18:34:46.916Z,4.50
2023-01-23T18:37:26.290Z,4.49
2023-01-23T18:39:56.486Z,4.50
2023-01-23T18:42:38.506Z,4.49
2023-01-23T18:45:11.988Z,4.50
2023-01-23T18:47:39.352Z,4.50
2023-01-23T18:50:07.285Z,4.49
2023-01-23T18:52:50.156Z,4.48
2023-01-23T18:55:47.337Z,4.46
2023-01-23T18:58:29.948Z,4.43
2023-01-23T19:01:17.565Z,4.44
2023-01-23T19:03:45.512Z,4.46
2023-01-23T19:06:22.209Z,4.47
2023-01-23T19:08:50.374Z,4.47
2023-01-23T19:11:31.899Z,4.46
2023-01-23T19:14:06.848Z,4.47
2023-01-23T19:16:41.304Z,4.46
2023-01-23T19:19:59.562Z,4.46
2023-01-23T19:22:29.979Z,4.47
2023-01-23T19:24:56.658Z,4.47
2023-01-23T19:27:23.846Z,4.47
2023-01-23T19:29:50.488Z,4.47
2023-01-23T19:32:17.255Z,4.47
2023-01-23T19:34:43.635Z,4.47
2023-01-23T19:37:10.105Z,4.47
2023-01-23T19:39:36.766Z,4.46
2023-01-23T19:42:03.361Z,4.43
2023-01-23T19:44:30.669Z,4.41
2023-01-23T19:46:57.140Z,4.39
2023-01-23T19:49:25.034Z,4.38
2023-01-23T19:51:51.576Z,4.36
2023-01-23T19:54:18.081Z,4.34
2023-01-23T19:56:44.476Z,4.32
2023-01-23T19:59:11.448Z,4.30
2023-01-23T20:01:45.642Z,4.29
2023-01-23T20:04:17.568Z,4.27
2023-01-23T20:06:49.043Z,4.25
2023-01-23T20:09:16.144Z,4.23
2023-01-23T20:11:42.936Z,4.22
2023-01-23T20:14:09.456Z,4.21
2023-01-23T20:16:40.129Z,4.19
2023-01-23T20:19:07.431Z,4.17
2023-01-23T20:21:34.326Z,4.16
2023-01-23T20:24:00.797Z,4.13
2023-01-23T20:26:27.583Z,4.12
2023-01-23T20:28:54.005Z,4.11
2023-01-23T20:31:21.737Z,4.09
2023-01-23T20:33:48.489Z,4.08
2023-01-23T20:36:15.899Z,4.06
2023-01-23T20:38:42.786Z,4.04
2023-01-23T20:41:15.797Z,4.04
2023-01-23T20:43:43.185Z,4.02
2023-01-23T20:46:10.954Z,4.01
2023-01-23T20:48:39.297Z,4.01
2023-01-23T20:51:08.656Z,4.00
2023-01-23T20:53:39.375Z,3.99
2023-01-23T20:56:16.497Z,3.98
2023-01-23T20:59:03.777Z,3.97
2023-01-23T21:01:52.894Z,3.95
2023-01-23T21:04:20.037Z,3.91
2023-01-23T21:06:46.468Z,3.89
2023-01-23T21:09:12.996Z,3.89
2023-01-23T21:11:39.480Z,3.89
2023-01-23T21:14:05.853Z,3.88
2023-01-23T21:16:32.647Z,3.88
2023-01-23T21:19:00.198Z,3.86
2023-01-23T21:21:26.751Z,3.86
2023-01-23T21:23:53.326Z,3.86
2023-01-23T21:26:23.159Z,3.86
2023-01-23T21:28:51.991Z,3.86
2023-01-23T21:31:32.712Z,3.86
2023-01-23T21:34:01.238Z,3.86
2023-01-23T21:36:28.111Z,3.87
2023-01-23T21:38:55.071Z,3.88
2023-01-23T21:41:21.796Z,3.88
2023-01-23T21:43:48.637Z,3.88
2023-01-23T21:46:15.228Z,3.89
2023-01-23T21:48:41.901Z,3.91
2023-01-23T21:51:11.131Z,3.93
2023-01-23T21:53:39.580Z,3.95
2023-01-23T21:56:07.251Z,3.95
2023-01-23T21:58:34.266Z,3.97
2023-01-23T22:01:22.159Z,3.97
2023-01-23T22:03:49.425Z,3.95
2023-01-23T22:06:16.256Z,3.95
2023-01-23T22:08:42.685Z,3.95
2023-01-23T22:11:10.018Z,3.96
2023-01-23T22:13:36.824Z,3.96
2023-01-23T22:16:04.275Z,3.96
2023-01-23T22:18:31.254Z,3.94
2023-01-23T22:20:59.750Z,3.94
2023-01-23T22:23:26.738Z,3.94
2023-01-23T22:25:56.817Z,3.92
2023-01-23T22:28:23.457Z,3.91
2023-01-23T22:30:49.916Z,3.90
2023-01-23T22:33:17.254Z,3.91
2023-01-23T22:35:43.956Z,3.91
2023-01-23T22:38:12.263Z,3.90
2023-01-23T22:40:39.045Z,3.90
2023-01-23T22:43:07.117Z,3.90
2023-01-23T22:45:33.521Z,3.89
2023-01-23T22:47:59.992Z,3.90
2023-01-23T22:50:27.323Z,3.89
2023-01-23T22:52:53.781Z,3.87
2023-01-23T22:55:20.736Z,3.87
2023-01-23T22:57:47.416Z,3.88
2023-01-23T23:00:15.613Z,3.88
2023-01-23T23:02:42.320Z,3.87
2023-01-23T23:05:09.706Z,3.87
2023-01-23T23:07:37.285Z,3.87
2023-01-23T23:10:06.363Z,3.85
2023-01-23T23:12:32.910Z,3.85
2023-01-23T23:14:59.335Z,3.88
2023-01-23T23:17:28.381Z,3.87
2023-01-23T23:19:54.788Z,3.88
2023-01-23T23:22:21.194Z,3.88
2023-01-23T23:24:47.588Z,3.88
2023-01-23T23:27:13.939Z,3.88
2023-01-23T23:29:40.399Z,3.90
2023-01-23T23:32:06.943Z,3.88
2023-01-23T23:34:34.705Z,3.88
2023-01-23T23:37:02.905Z,3.89
2023-01-23T23:39:29.485Z,3.92
2023-01-23T23:41:56.109Z,3.94
2023-01-23T23:44:22.616Z,3.98
2023-01-23T23:46:49.045Z,3.99
2023-01-23T23:49:15.449Z,4.02
2023-01-23T23:51:41.816Z,4.06
2023-01-23T23:54:08.254Z,4.07
2023-01-23T23:56:34.675Z,4.08
2023-01-23T23:59:01.116Z,4.05
